Time;durP1;ratioP1;P1;durP2;ratioP2;P2;SDS_P1;SDS_P2;PMS_P1;PMS_P2;Temp;Humidity;BMP_temperature;BMP_pressure;BME280_temperature;BME280_humidity;BME280_pressure;Samples;Min_cycle;Max_cycle;Signal;HPM_P1;HPM_P2
2021/01/17 00:00:35;;;;;;;16.10;7.03;;;;;;;-0.52;100.00;98248.03;5004088;28;20199;-71
2021/01/17 00:03:02;;;;;;;16.53;7.23;;;;;;;-0.46;100.00;98239.66;5008262;28;20236;-72
2021/01/17 00:05:30;;;;;;;15.37;6.70;;;;;;;-0.40;100.00;98228.66;5011115;28;20210;-71
2021/01/17 00:07:57;;;;;;;15.43;6.17;;;;;;;-0.73;100.00;98231.44;5007948;28;20207;-73
2021/01/17 00:10:26;;;;;;;14.50;6.93;;;;;;;-0.38;100.00;98218.88;5009500;28;20269;-74
2021/01/17 00:12:53;;;;;;;15.33;6.80;;;;;;;-0.82;100.00;98212.19;5010531;28;20598;-72
2021/01/17 00:15:20;;;;;;;12.40;6.20;;;;;;;-0.91;100.00;98206.75;5006758;28;20203;-73
2021/01/17 00:17:47;;;;;;;15.27;7.33;;;;;;;-0.98;100.00;98204.75;5009621;28;20222;-72
2021/01/17 00:20:16;;;;;;;14.27;6.03;;;;;;;-0.80;100.00;98190.97;5005946;28;20206;-73
2021/01/17 00:22:43;;;;;;;12.87;6.33;;;;;;;-0.70;100.00;98183.19;5010340;28;20234;-72
2021/01/17 00:25:11;;;;;;;14.10;7.30;;;;;;;-0.96;100.00;98174.03;5010624;28;20590;-73
2021/01/17 00:27:39;;;;;;;12.27;7.20;;;;;;;-0.88;100.00;98176.84;5006389;28;20215;-73
2021/01/17 00:30:10;;;;;;;12.83;6.27;;;;;;;-0.86;100.00;98177.56;5006719;28;20207;-72
2021/01/17 00:32:37;;;;;;;13.37;6.20;;;;;;;-0.73;100.00;98158.09;5010291;28;20590;-73
2021/01/17 00:35:04;;;;;;;15.37;6.67;;;;;;;-0.80;100.00;98166.59;5007622;28;20210;-72
2021/01/17 00:37:31;;;;;;;16.23;7.27;;;;;;;-0.76;100.00;98166.19;5008911;28;20205;-73
2021/01/17 00:39:58;;;;;;;20.17;7.40;;;;;;;-0.72;100.00;98170.22;5009293;28;20211;-72
2021/01/17 00:42:25;;;;;;;17.17;8.00;;;;;;;-0.85;100.00;98160.91;5020861;28;20264;-74
2021/01/17 00:44:53;;;;;;;25.80;8.80;;;;;;;-0.88;100.00;98167.22;5028022;28;20206;-72
2021/01/17 00:47:20;;;;;;;21.30;8.83;;;;;;;-0.72;100.00;98164.13;5030742;28;20305;-74
2021/01/17 00:49:46;;;;;;;18.90;7.57;;;;;;;-0.77;100.00;98161.91;5021545;28;20205;-72
2021/01/17 00:52:17;;;;;;;16.60;7.20;;;;;;;-0.73;100.00;98159.88;5023281;28;20241;-72
2021/01/17 00:54:44;;;;;;;17.67;7.23;;;;;;;-0.68;100.00;98153.28;5029164;28;20210;-72
2021/01/17 00:57:11;;;;;;;15.20;7.10;;;;;;;-0.75;100.00;98149.50;5022102;28;20965;-73
2021/01/17 00:59:38;;;;;;;20.30;7.37;;;;;;;-0.56;100.00;98146.19;5023852;28;20213;-73
2021/01/17 01:02:06;;;;;;;17.70;6.90;;;;;;;-0.75;100.00;98144.28;5023611;28;20238;-72
2021/01/17 01:04:33;;;;;;;15.60;7.70;;;;;;;-0.76;100.00;98144.41;5025078;28;20203;-72
2021/01/17 01:06:59;;;;;;;17.40;8.17;;;;;;;-0.77;100.00;98136.69;5026370;28;20734;-73
2021/01/17 01:09:26;;;;;;;16.53;8.00;;;;;;;-0.89;100.00;98141.16;5026262;28;20199;-72
2021/01/17 01:11:53;;;;;;;17.37;7.07;;;;;;;-0.72;100.00;98138.78;5028497;28;20226;-72
2021/01/17 01:14:21;;;;;;;15.97;7.17;;;;;;;-0.69;100.00;98133.28;5027494;28;20271;-72
2021/01/17 01:16:51;;;;;;;15.73;7.10;;;;;;;-0.74;100.00;98126.78;5029534;28;20272;-72
2021/01/17 01:19:19;;;;;;;12.80;5.93;;;;;;;-0.73;100.00;98131.03;5024281;28;20218;-73
2021/01/17 01:21:46;;;;;;;16.57;7.03;;;;;;;-0.67;100.00;98120.03;5020935;28;20245;-73
2021/01/17 01:24:13;;;;;;;17.43;7.47;;;;;;;-0.50;100.00;98114.22;5027764;28;20218;-73
2021/01/17 01:26:42;;;;;;;15.47;7.37;;;;;;;-0.64;100.00;98119.81;5027636;28;20594;-73
2021/01/17 01:29:09;;;;;;;15.53;7.23;;;;;;;-0.55;100.00;98113.78;5029750;28;20264;-73
2021/01/17 01:31:36;;;;;;;18.77;7.93;;;;;;;-0.47;100.00;98115.75;5029641;28;20219;-73
2021/01/17 01:34:04;;;;;;;13.80;7.20;;;;;;;-0.47;100.00;98113.16;5027241;28;20249;-72
2021/01/17 01:36:34;;;;;;;19.80;7.37;;;;;;;-0.46;100.00;98105.97;5028407;28;20233;-72
2021/01/17 01:39:02;;;;;;;17.43;7.63;;;;;;;-0.19;100.00;98103.59;5027931;28;20206;-72
2021/01/17 01:41:29;;;;;;;18.17;8.10;;;;;;;-0.52;100.00;98110.09;5031052;28;20238;-72
2021/01/17 01:43:56;;;;;;;23.80;10.00;;;;;;;-0.68;100.00;98102.66;5031012;28;20210;-72
2021/01/17 01:46:24;;;;;;;22.07;9.40;;;;;;;-0.82;100.00;98104.81;5031011;28;20206;-71
2021/01/17 01:48:53;;;;;;;19.80;8.57;;;;;;;-0.77;100.00;98103.44;5030634;28;20210;-72
2021/01/17 01:51:20;;;;;;;18.73;8.43;;;;;;;-0.71;100.00;98097.69;5027100;28;20218;-71
2021/01/17 01:53:48;;;;;;;20.23;9.30;;;;;;;-0.68;100.00;98100.06;5031621;28;20240;-73
2021/01/17 01:56:15;;;;;;;23.53;9.47;;;;;;;-0.70;100.00;98091.50;5030741;28;20207;-72
2021/01/17 01:58:43;;;;;;;18.73;8.33;;;;;;;-0.72;100.00;98086.38;5028169;28;20202;-73
2021/01/17 02:01:10;;;;;;;22.97;9.23;;;;;;;-0.81;100.00;98086.34;5029893;28;20572;-72
2021/01/17 02:03:37;;;;;;;21.03;9.97;;;;;;;-0.90;100.00;98087.91;5031120;28;20605;-72
2021/01/17 02:06:11;;;;;;;16.23;7.83;;;;;;;-0.73;100.00;98084.72;5031249;28;20207;-72
2021/01/17 02:09:05;;;;;;;17.93;8.83;;;;;;;-0.75;100.00;98078.78;5030131;28;20198;-73
2021/01/17 02:12:09;;;;;;;21.67;9.40;;;;;;;-0.73;100.00;98079.50;5031057;28;20226;-72
2021/01/17 02:14:47;;;;;;;21.53;9.40;;;;;;;-0.55;100.00;98080.53;5005645;28;20206;-72
2021/01/17 02:17:15;;;;;;;18.13;9.27;;;;;;;-0.51;100.00;98066.22;5033148;28;20360;-72
2021/01/17 02:20:01;;;;;;;18.37;8.97;;;;;;;-0.62;100.00;98073.31;5029787;28;20575;-72
2021/01/17 02:22:31;;;;;;;18.43;8.03;;;;;;;-0.74;100.00;98069.13;5018211;28;20234;-72
2021/01/17 02:25:04;;;;;;;18.57;8.43;;;;;;;-0.72;100.00;98060.19;5023320;28;20213;-71
2021/01/17 02:27:31;;;;;;;24.27;9.07;;;;;;;-0.72;100.00;98060.19;5020166;28;20203;-71
2021/01/17 02:30:00;;;;;;;21.03;9.73;;;;;;;-0.66;100.00;98067.53;5019965;28;20219;-73
2021/01/17 02:32:30;;;;;;;18.80;8.23;;;;;;;-0.72;100.00;98068.03;5026542;28;20230;-73
2021/01/17 02:34:57;;;;;;;20.47;8.97;;;;;;;-0.61;100.00;98065.34;5029317;28;20202;-72
2021/01/17 02:37:29;;;;;;;17.00;7.63;;;;;;;-0.61;100.00;98059.25;5024331;28;20256;-72
2021/01/17 02:40:04;;;;;;;19.67;9.13;;;;;;;-0.77;100.00;98065.94;5030122;28;20298;-71
2021/01/17 02:42:32;;;;;;;14.20;7.87;;;;;;;-0.64;100.00;98065.59;5026783;28;20381;-72
2021/01/17 02:45:00;;;;;;;18.47;8.63;;;;;;;-0.71;100.00;98059.22;5029240;28;20213;-72
2021/01/17 02:47:27;;;;;;;21.00;9.33;;;;;;;-0.57;100.00;98059.84;5028933;28;20202;-72
2021/01/17 02:49:54;;;;;;;19.23;8.83;;;;;;;-0.59;100.00;98063.41;5021281;28;20304;-70
2021/01/17 02:52:29;;;;;;;16.83;7.53;;;;;;;-0.63;100.00;98062.03;5029535;28;20226;-72
2021/01/17 02:54:55;;;;;;;17.73;8.80;;;;;;;-0.66;100.00;98064.06;5029030;28;20206;-71
2021/01/17 02:57:27;;;;;;;18.43;8.70;;;;;;;-0.49;100.00;98064.28;5030508;28;20639;-71
2021/01/17 02:59:56;;;;;;;21.33;9.20;;;;;;;-0.22;100.00;98065.50;5029779;28;20218;-71
2021/01/17 03:02:26;;;;;;;18.07;8.57;;;;;;;-0.69;100.00;98064.34;5029648;28;20233;-71
2021/01/17 03:04:57;;;;;;;15.40;8.23;;;;;;;-0.74;100.00;98066.50;5030459;28;20206;-72
2021/01/17 03:07:24;;;;;;;21.87;8.40;;;;;;;-0.73;100.00;98073.41;5031934;28;20209;-71
2021/01/17 03:09:51;;;;;;;24.70;9.50;;;;;;;-0.49;100.00;98064.28;5030614;28;20202;-72
2021/01/17 03:12:18;;;;;;;23.00;9.90;;;;;;;-0.74;100.00;98058.66;5026280;28;20229;-72
2021/01/17 03:14:47;;;;;;;21.37;9.90;;;;;;;-0.94;100.00;98054.25;5029182;28;20206;-71
2021/01/17 03:17:14;;;;;;;22.53;10.03;;;;;;;-0.84;100.00;98055.16;5030740;28;20210;-73
2021/01/17 03:19:40;;;;;;;22.10;9.43;;;;;;;-0.80;100.00;98053.94;5031420;28;20764;-73
2021/01/17 03:22:07;;;;;;;18.57;8.90;;;;;;;-0.73;100.00;98057.69;5032029;28;20690;-74
2021/01/17 03:24:34;;;;;;;21.97;10.00;;;;;;;-0.85;100.00;98053.50;5032210;28;20198;-71
2021/01/17 03:27:01;;;;;;;23.87;10.13;;;;;;;-0.85;100.00;98046.44;5031783;28;20206;-72
2021/01/17 03:29:28;;;;;;;19.27;8.70;;;;;;;-0.75;100.00;98049.94;5026287;28;20655;-72
2021/01/17 03:31:55;;;;;;;18.40;8.57;;;;;;;-0.77;100.00;98045.00;5024657;28;20309;-71
2021/01/17 03:34:22;;;;;;;22.23;9.87;;;;;;;-0.89;100.00;98039.00;5028393;28;20213;-72
2021/01/17 03:36:49;;;;;;;25.20;10.33;;;;;;;-0.91;100.00;98028.63;5030318;28;20237;-73
2021/01/17 03:39:16;;;;;;;19.07;9.33;;;;;;;-1.00;100.00;98029.41;5025798;28;20202;-72
2021/01/17 03:41:42;;;;;;;23.57;9.70;;;;;;;-0.95;100.00;98029.84;5030627;28;20233;-71
2021/01/17 03:44:09;;;;;;;19.70;8.83;;;;;;;-0.62;100.00;98026.16;5023020;28;20214;-73
2021/01/17 03:46:36;;;;;;;18.67;8.70;;;;;;;-0.66;100.00;98016.91;5030039;28;20732;-73
2021/01/17 03:49:04;;;;;;;23.07;10.47;;;;;;;-0.82;100.00;98016.56;5026243;28;20577;-73
2021/01/17 03:51:31;;;;;;;20.10;9.33;;;;;;;-0.62;100.00;98024.38;5027413;28;20233;-72
2021/01/17 03:53:58;;;;;;;21.23;9.43;;;;;;;-0.65;100.00;98029.88;5023987;28;20216;-73
2021/01/17 03:56:24;;;;;;;19.13;9.53;;;;;;;-0.69;100.00;98025.84;5022659;28;20216;-73
2021/01/17 03:58:51;;;;;;;22.47;10.00;;;;;;;-0.66;100.00;98022.13;5028457;28;20202;-72
2021/01/17 04:01:18;;;;;;;18.10;9.03;;;;;;;-0.43;100.00;98024.47;5029155;28;20226;-72
2021/01/17 04:03:45;;;;;;;18.97;8.93;;;;;;;-0.44;100.00;98027.22;5027594;28;20213;-72
2021/01/17 04:06:13;;;;;;;20.23;8.47;;;;;;;-0.41;100.00;98030.41;5026822;28;20261;-73
2021/01/17 04:08:39;;;;;;;19.80;9.00;;;;;;;-0.38;100.00;98040.63;5027757;28;20225;-72
2021/01/17 04:11:06;;;;;;;22.10;9.37;;;;;;;-0.19;100.00;98014.44;5022155;28;20960;-73
2021/01/17 04:13:33;;;;;;;21.77;8.90;;;;;;;-0.51;100.00;98026.91;5027076;28;20202;-73
2021/01/17 04:16:00;;;;;;;20.17;8.90;;;;;;;-0.67;100.00;98023.09;5027702;28;20206;-73
2021/01/17 04:18:26;;;;;;;21.90;9.30;;;;;;;-0.75;100.00;98017.72;5028913;28;20225;-73
2021/01/17 04:20:54;;;;;;;19.87;9.90;;;;;;;-0.69;100.00;98025.84;5026960;28;20201;-74
2021/01/17 04:23:22;;;;;;;23.40;8.93;;;;;;;-0.75;100.00;98021.13;5028006;28;20242;-73
2021/01/17 04:25:50;;;;;;;20.30;8.87;;;;;;;-0.40;100.00;98018.94;5030395;28;20293;-73
2021/01/17 04:28:16;;;;;;;22.00;9.80;;;;;;;-0.58;100.00;98024.94;5027221;28;20793;-73
2021/01/17 04:30:43;;;;;;;18.00;8.43;;;;;;;-0.41;100.00;98024.31;5030049;28;20217;-73
2021/01/17 04:33:10;;;;;;;23.03;9.63;;;;;;;-0.52;100.00;98027.03;5028242;28;20221;-72
2021/01/17 04:35:37;;;;;;;18.20;8.63;;;;;;;-0.44;100.00;98033.25;5027704;28;20198;-73
2021/01/17 04:38:04;;;;;;;23.03;8.97;;;;;;;-0.57;100.00;98040.53;5027899;28;20202;-73
2021/01/17 04:40:31;;;;;;;23.00;10.03;;;;;;;-0.43;100.00;98036.72;5022567;28;20208;-73
2021/01/17 04:43:07;;;;;;;20.03;9.60;;;;;;;-0.52;100.00;98044.56;5027333;28;20324;-72
2021/01/17 04:45:34;;;;;;;22.17;9.43;;;;;;;-0.60;100.00;98038.16;5023858;28;20206;-73
2021/01/17 04:48:02;;;;;;;24.63;10.30;;;;;;;-0.46;100.00;98040.44;5027159;28;20686;-72
2021/01/17 04:50:32;;;;;;;21.03;9.47;;;;;;;-0.43;100.00;98041.97;5021348;28;20228;-74
2021/01/17 04:53:01;;;;;;;19.50;9.13;;;;;;;-0.44;100.00;98040.31;5026250;28;20733;-72
2021/01/17 04:55:28;;;;;;;20.70;9.07;;;;;;;-0.56;100.00;98044.81;5026637;28;20547;-73
2021/01/17 04:58:16;;;;;;;20.13;10.20;;;;;;;-0.65;100.00;98047.41;5027076;28;20210;-74
2021/01/17 05:00:44;;;;;;;22.00;9.37;;;;;;;-0.36;100.00;98040.47;5021327;28;20211;-72
2021/01/17 05:03:19;;;;;;;20.77;9.87;;;;;;;-0.62;100.00;98044.50;5027189;28;20227;-73
2021/01/17 05:05:53;;;;;;;24.80;10.50;;;;;;;-0.39;100.00;98038.94;5028999;28;20206;-72
2021/01/17 05:08:31;;;;;;;23.23;9.83;;;;;;;-0.37;100.00;98049.31;5027858;28;20213;-73
2021/01/17 05:11:04;;;;;;;22.80;9.40;;;;;;;-0.42;100.00;98049.72;5027372;28;20682;-73
2021/01/17 05:13:37;;;;;;;25.50;10.30;;;;;;;-0.31;100.00;98048.75;5029822;28;20305;-73
2021/01/17 05:16:06;;;;;;;22.80;10.70;;;;;;;-0.32;100.00;98047.94;5030874;28;20206;-73
2021/01/17 05:18:34;;;;;;;20.10;9.73;;;;;;;-0.27;100.00;98050.16;5032462;28;20230;-73
2021/01/17 05:21:03;;;;;;;19.63;8.77;;;;;;;-0.27;100.00;98050.16;5025618;28;20581;-71
2021/01/17 05:23:33;;;;;;;22.10;10.20;;;;;;;-0.24;100.00;98061.22;5028527;28;20226;-72
2021/01/17 05:26:02;;;;;;;25.57;9.80;;;;;;;-0.10;100.00;98062.66;5034003;28;20677;-72
2021/01/17 05:28:30;;;;;;;20.20;9.07;;;;;;;-0.19;100.00;98052.97;5033988;28;20209;-72
2021/01/17 05:30:58;;;;;;;22.30;9.97;;;;;;;-0.10;100.00;98057.41;5030574;28;20206;-73
2021/01/17 05:33:28;;;;;;;22.07;9.60;;;;;;;0.02;100.00;98051.91;5033629;28;20217;-71
2021/01/17 05:35:56;;;;;;;19.53;9.17;;;;;;;0.13;100.00;98059.69;5026630;28;20210;-72
2021/01/17 05:38:23;;;;;;;18.47;9.07;;;;;;;0.26;100.00;98060.22;5032355;28;20682;-72
2021/01/17 05:40:50;;;;;;;18.27;8.63;;;;;;;0.14;100.00;98060.50;5032176;28;20206;-71
2021/01/17 05:45:55;;;;;;;20.13;9.20;;;;;;;-0.05;100.00;98066.53;5028845;28;20217;-70
2021/01/17 05:48:22;;;;;;;21.77;9.33;;;;;;;-0.04;100.00;98067.38;5031927;28;20210;-70
2021/01/17 05:50:49;;;;;;;20.80;9.77;;;;;;;0.05;100.00;98074.41;5029551;28;20585;-70
2021/01/17 05:53:16;;;;;;;21.40;9.57;;;;;;;0.03;100.00;98071.94;5029008;28;20573;-71
2021/01/17 05:55:44;;;;;;;21.67;9.13;;;;;;;0.11;100.00;98073.91;5033098;28;20222;-70
2021/01/17 05:58:22;;;;;;;21.53;9.53;;;;;;;0.07;100.00;98078.56;5031093;28;20210;-70
2021/01/17 06:00:49;;;;;;;22.03;9.27;;;;;;;0.08;100.00;98077.63;5032812;28;20547;-70
2021/01/17 06:03:19;;;;;;;22.33;9.23;;;;;;;0.15;100.00;98078.72;5032188;28;20236;-70
2021/01/17 06:05:49;;;;;;;20.43;9.47;;;;;;;0.31;100.00;98080.84;5030831;28;20267;-70
2021/01/17 06:08:20;;;;;;;23.60;10.23;;;;;;;0.08;100.00;98072.38;5029830;28;20205;-70
2021/01/17 06:10:47;;;;;;;22.43;9.93;;;;;;;0.20;100.00;98075.69;5032694;28;20206;-70
2021/01/17 06:13:25;;;;;;;22.77;9.87;;;;;;;0.24;100.00;98072.66;5031138;28;20249;-70
2021/01/17 06:15:52;;;;;;;22.03;10.27;;;;;;;-0.04;100.00;98076.03;5031895;28;20202;-70
2021/01/17 06:18:22;;;;;;;22.10;10.90;;;;;;;-0.07;100.00;98073.72;5032045;28;20648;-71
2021/01/17 06:20:57;;;;;;;27.40;10.87;;;;;;;-0.25;100.00;98074.47;5029213;28;20206;-70
2021/01/17 06:23:25;;;;;;;25.20;10.43;;;;;;;-0.37;100.00;98067.66;5023612;28;20225;-70
2021/01/17 06:26:10;;;;;;;23.17;10.00;;;;;;;-0.39;100.00;98067.78;5026795;28;20210;-70
2021/01/17 06:28:41;;;;;;;20.20;10.33;;;;;;;-0.16;100.00;98071.03;5029174;28;20778;-70
2021/01/17 06:31:09;;;;;;;22.93;10.43;;;;;;;-0.20;100.00;98074.91;5030033;28;20213;-70
2021/01/17 06:33:36;;;;;;;26.57;10.37;;;;;;;-0.34;100.00;98083.13;5031291;28;20571;-69
2021/01/17 06:36:21;;;;;;;25.63;10.70;;;;;;;-0.36;100.00;98074.53;5029083;28;20207;-69
2021/01/17 06:38:48;;;;;;;22.43;10.00;;;;;;;-0.26;100.00;98076.25;5029005;28;21504;-69
2021/01/17 06:41:15;;;;;;;23.17;9.93;;;;;;;-0.22;100.00;98077.66;5029391;28;20977;-70
2021/01/17 06:43:43;;;;;;;23.83;10.93;;;;;;;-0.16;100.00;98079.75;5032186;28;20234;-70
2021/01/17 06:46:11;;;;;;;24.53;10.80;;;;;;;0.03;100.00;98081.59;5048534;28;20251;-70
2021/01/17 06:48:38;;;;;;;23.57;10.03;;;;;;;-0.03;100.00;98075.09;5051443;28;20615;-69
2021/01/17 06:51:19;;;;;;;25.37;11.03;;;;;;;-0.01;100.00;98077.56;5049679;28;20206;-70
2021/01/17 06:53:54;;;;;;;25.67;11.00;;;;;;;-0.09;100.00;98080.84;5048744;28;20592;-70
2021/01/17 06:56:21;;;;;;;25.50;11.13;;;;;;;-0.04;100.00;98080.47;5049601;28;20198;-70
2021/01/17 06:58:51;;;;;;;24.47;11.10;;;;;;;-0.13;100.00;98078.66;5051707;28;20217;-69
2021/01/17 07:01:28;;;;;;;25.90;11.27;;;;;;;-0.08;100.00;98081.69;5051509;28;20209;-70
2021/01/17 07:04:11;;;;;;;27.43;11.80;;;;;;;-0.10;100.00;98079.22;5048318;28;20608;-71
2021/01/17 07:06:59;;;;;;;21.87;10.73;;;;;;;0.02;100.00;98077.31;5049735;28;20209;-77
2021/01/17 07:09:37;;;;;;;34.17;11.50;;;;;;;0.15;100.00;98072.63;5051897;28;20209;-73
2021/01/17 07:12:11;;;;;;;26.23;11.03;;;;;;;-0.02;100.00;98089.88;5050684;28;20201;-72
2021/01/17 07:14:40;;;;;;;25.93;10.83;;;;;;;-0.08;100.00;98087.78;5045894;28;20214;-73
2021/01/17 07:17:09;;;;;;;26.23;11.27;;;;;;;0.09;100.00;98081.06;5048848;28;20671;-73
2021/01/17 07:19:40;;;;;;;24.80;10.20;;;;;;;0.46;100.00;98088.16;5051284;28;20205;-75
2021/01/17 07:22:07;;;;;;;24.40;11.47;;;;;;;0.32;100.00;98088.56;5045043;28;20698;-76
2021/01/17 07:24:35;;;;;;;28.60;11.93;;;;;;;0.52;100.00;98089.44;5050605;28;20217;-74
2021/01/17 07:27:09;;;;;;;25.70;11.23;;;;;;;0.63;100.00;98098.00;5047567;28;20205;-73
2021/01/17 07:29:37;;;;;;;27.90;12.00;;;;;;;0.47;100.00;98095.06;5043661;28;20552;-76
2021/01/17 07:32:09;;;;;;;30.43;11.33;;;;;;;0.40;100.00;98099.22;5050193;28;20220;-78
2021/01/17 07:34:40;;;;;;;24.97;11.37;;;;;;;0.32;100.00;98101.69;5047910;28;20351;-76
2021/01/17 07:37:12;;;;;;;26.10;11.10;;;;;;;0.46;100.00;98101.28;5051676;28;20695;-75
2021/01/17 07:39:41;;;;;;;25.57;11.63;;;;;;;0.37;100.00;98104.72;5042805;28;20707;-74
2021/01/17 07:42:11;;;;;;;26.67;11.67;;;;;;;0.36;100.00;98103.06;5049357;28;20267;-71
2021/01/17 07:44:42;;;;;;;29.33;11.53;;;;;;;0.48;100.00;98107.25;5050692;28;20240;-72
2021/01/17 07:47:11;;;;;;;31.00;13.17;;;;;;;0.35;100.00;98113.69;5048567;28;20195;-73
2021/01/17 07:49:38;;;;;;;31.37;12.53;;;;;;;0.53;100.00;98110.31;5049302;28;20206;-73
2021/01/17 07:52:06;;;;;;;29.73;12.73;;;;;;;0.71;100.00;98116.53;5047822;28;20661;-72
2021/01/17 07:54:35;;;;;;;28.67;11.90;;;;;;;0.73;100.00;98125.06;5045462;28;20288;-74
2021/01/17 07:57:08;;;;;;;23.93;9.93;;;;;;;0.77;100.00;98123.84;5042881;28;20214;-74
2021/01/17 07:59:35;;;;;;;28.23;11.33;;;;;;;0.71;100.00;98131.47;5048708;28;20209;-72
2021/01/17 08:02:02;;;;;;;34.50;13.10;;;;;;;0.64;100.00;98128.56;5049678;28;20594;-73
2021/01/17 08:04:30;;;;;;;26.57;11.97;;;;;;;0.56;100.00;98133.63;5046243;28;20229;-77
2021/01/17 08:06:58;;;;;;;31.73;11.83;;;;;;;0.82;100.00;98131.34;5048199;28;20719;-76
2021/01/17 08:09:44;;;;;;;24.33;11.17;;;;;;;0.93;100.00;98133.81;5047901;28;20202;-73
2021/01/17 08:12:33;;;;;;;29.33;12.20;;;;;;;0.93;100.00;98139.06;5048183;28;20853;-74
2021/01/17 08:15:21;;;;;;;25.73;12.00;;;;;;;1.30;100.00;98130.34;5041360;28;20222;-73
2021/01/17 08:17:49;;;;;;;31.13;12.50;;;;;;;1.31;100.00;98132.00;5045624;28;20209;-71
2021/01/17 08:20:31;;;;;;;28.30;11.63;;;;;;;1.39;100.00;98140.03;5046694;28;20206;-74
2021/01/17 08:23:12;;;;;;;27.20;11.77;;;;;;;1.00;100.00;98153.31;5043250;28;20312;-76
2021/01/17 08:26:01;;;;;;;23.53;11.53;;;;;;;1.19;100.00;98145.41;5045232;28;20229;-72
2021/01/17 08:28:39;;;;;;;31.93;11.97;;;;;;;1.39;100.00;98139.19;5041436;28;20210;-73
2021/01/17 08:31:42;;;;;;;25.63;11.00;;;;;;;1.44;100.00;98140.44;5048799;28;20280;-72
2021/01/17 08:34:17;;;;;;;24.30;10.97;;;;;;;1.21;100.00;98139.06;5047935;28;20225;-74
2021/01/17 08:36:46;;;;;;;27.17;12.60;;;;;;;1.40;100.00;98141.66;5048849;28;20547;-73
2021/01/17 08:39:13;;;;;;;29.70;12.50;;;;;;;1.40;100.00;98144.31;5046917;28;20197;-72
2021/01/17 08:41:41;;;;;;;22.67;10.80;;;;;;;1.33;100.00;98148.44;5043816;28;20210;-73
2021/01/17 08:44:09;;;;;;;27.80;11.57;;;;;;;1.15;100.00;98144.88;5046794;28;20321;-73
2021/01/17 08:46:38;;;;;;;27.03;11.00;;;;;;;1.49;100.00;98150.50;5045843;28;20292;-75
2021/01/17 08:49:06;;;;;;;25.97;11.57;;;;;;;1.15;100.00;98155.38;5052168;28;20220;-73
2021/01/17 08:51:32;;;;;;;25.70;10.57;;;;;;;1.48;100.00;98162.00;5053455;28;20202;-73
2021/01/17 08:54:22;;;;;;;28.77;11.73;;;;;;;1.53;100.00;98165.03;5052336;28;21142;-72
2021/01/17 08:56:48;;;;;;;25.17;11.37;;;;;;;1.53;100.00;98160.59;5041976;28;20209;-73
2021/01/17 08:59:34;;;;;;;23.77;11.03;;;;;;;1.61;100.00;98171.25;5035995;28;20204;-72
2021/01/17 09:02:01;;;;;;;22.97;10.27;;;;;;;1.29;100.00;98181.25;5045394;28;20678;-73
2021/01/17 09:04:29;;;;;;;25.57;12.37;;;;;;;1.73;100.00;98175.34;5049084;28;20308;-72
2021/01/17 09:06:58;;;;;;;24.60;11.43;;;;;;;1.52;100.00;98185.22;5052810;28;20205;-72
2021/01/17 09:09:25;;;;;;;23.47;10.30;;;;;;;1.45;100.00;98191.19;5050512;28;20209;-72
2021/01/17 09:11:53;;;;;;;26.93;10.83;;;;;;;1.51;100.00;98182.75;5053595;28;20205;-73
2021/01/17 09:14:22;;;;;;;28.00;11.53;;;;;;;1.48;100.00;98194.38;5047701;28;20218;-74
2021/01/17 09:16:52;;;;;;;24.47;10.00;;;;;;;1.35;100.00;98195.63;5048434;28;20212;-75
2021/01/17 09:19:21;;;;;;;28.63;10.77;;;;;;;1.84;100.00;98192.78;5047618;28;20791;-73
2021/01/17 09:21:50;;;;;;;22.00;9.97;;;;;;;1.56;100.00;98196.28;5055644;28;20256;-73
2021/01/17 09:24:18;;;;;;;24.20;10.63;;;;;;;1.86;100.00;98196.94;5036965;28;20229;-73
2021/01/17 09:26:47;;;;;;;25.00;10.33;;;;;;;1.80;100.00;98199.31;5043765;28;20542;-76
2021/01/17 09:29:31;;;;;;;33.80;10.57;;;;;;;1.97;100.00;98199.41;5044759;28;20201;-73
2021/01/17 09:32:01;;;;;;;22.73;9.97;;;;;;;1.73;100.00;98200.84;5047326;28;20197;-73
2021/01/17 09:34:31;;;;;;;21.90;10.20;;;;;;;2.02;100.00;98205.06;5041499;28;20752;-73
2021/01/17 09:36:59;;;;;;;21.57;9.70;;;;;;;1.76;100.00;98209.28;5049941;28;20673;-73
2021/01/17 09:39:28;;;;;;;24.40;10.00;;;;;;;1.86;100.00;98204.84;5049873;28;20229;-75
2021/01/17 09:41:55;;;;;;;19.53;9.17;;;;;;;2.26;100.00;98204.56;5051262;28;20213;-71
2021/01/17 09:44:22;;;;;;;22.13;9.83;;;;;;;2.23;100.00;98210.94;5034358;28;20237;-73
2021/01/17 09:46:49;;;;;;;25.10;10.37;;;;;;;1.88;100.00;98210.78;5049961;28;20202;-72
2021/01/17 09:49:22;;;;;;;20.10;9.07;;;;;;;1.61;100.00;98212.47;5054574;28;20200;-72
2021/01/17 09:51:49;;;;;;;20.33;9.93;;;;;;;1.64;100.00;98226.19;5054247;28;20194;-73
2021/01/17 09:54:16;;;;;;;21.47;9.00;;;;;;;1.74;100.00;98220.91;5045421;28;20694;-71
2021/01/17 09:56:43;;;;;;;19.60;8.47;;;;;;;2.00;100.00;98221.97;5042575;28;20206;-74
2021/01/17 09:59:22;;;;;;;21.50;9.23;;;;;;;1.83;100.00;98223.53;5053806;28;20202;-73
2021/01/17 10:01:50;;;;;;;20.90;9.00;;;;;;;1.94;100.00;98222.53;5053964;28;20292;-75
2021/01/17 10:04:22;;;;;;;20.10;8.60;;;;;;;1.90;100.00;98222.00;5056292;28;20372;-74
2021/01/17 10:06:50;;;;;;;19.63;8.43;;;;;;;2.19;100.00;98227.19;5043529;28;20206;-71
2021/01/17 10:09:17;;;;;;;18.90;8.80;;;;;;;2.20;100.00;98224.38;5047747;28;20212;-75
2021/01/17 10:11:44;;;;;;;15.07;7.33;;;;;;;2.30;100.00;98227.81;5050060;28;20206;-72
2021/01/17 10:14:12;;;;;;;20.20;9.43;;;;;;;2.38;100.00;98221.81;5047296;28;20218;-72
2021/01/17 10:16:40;;;;;;;19.90;8.90;;;;;;;2.34;100.00;98221.28;5054259;28;20203;-74
2021/01/17 10:19:07;;;;;;;19.60;9.10;;;;;;;2.22;100.00;98226.88;5054171;28;20211;-72
2021/01/17 10:21:39;;;;;;;19.83;9.17;;;;;;;2.47;100.00;98221.81;5047450;28;20198;-72
2021/01/17 10:24:07;;;;;;;21.50;9.33;;;;;;;2.62;100.00;98220.34;5057878;28;20221;-72
2021/01/17 10:26:35;;;;;;;21.70;9.77;;;;;;;2.71;100.00;98216.84;5045220;28;20194;-72
2021/01/17 10:29:08;;;;;;;22.40;9.43;;;;;;;2.87;100.00;98227.56;5041675;28;20202;-71
2021/01/17 10:31:37;;;;;;;23.17;9.60;;;;;;;2.39;100.00;98223.50;5048431;28;20209;-71
2021/01/17 10:34:04;;;;;;;21.23;9.93;;;;;;;2.22;100.00;98227.72;5045303;28;20629;-74
2021/01/17 10:36:31;;;;;;;24.03;9.03;;;;;;;2.07;100.00;98229.16;5050366;28;20201;-74
2021/01/17 10:38:59;;;;;;;18.50;8.47;;;;;;;2.29;100.00;98227.97;5053759;28;20285;-73
2021/01/17 10:41:27;;;;;;;20.43;8.73;;;;;;;2.65;100.00;98221.84;5047885;28;20217;-73
2021/01/17 10:44:07;;;;;;;21.43;9.93;;;;;;;2.44;100.00;98229.97;5041085;28;20234;-73
2021/01/17 10:46:36;;;;;;;19.33;9.33;;;;;;;2.30;100.00;98222.53;5037846;28;20201;-73
2021/01/17 10:49:07;;;;;;;17.30;9.47;;;;;;;2.41;100.00;98224.19;5053278;28;20206;-72
2021/01/17 10:51:39;;;;;;;22.17;9.73;;;;;;;2.74;100.00;98211.25;5046039;28;20191;-72
2021/01/17 10:54:07;;;;;;;21.80;10.20;;;;;;;2.55;100.00;98213.97;5052878;28;20582;-73
2021/01/17 10:56:35;;;;;;;20.70;9.50;;;;;;;2.63;100.00;98215.88;5042075;28;20663;-73
2021/01/17 10:59:07;;;;;;;17.80;8.60;;;;;;;2.82;100.00;98215.78;5042125;28;20202;-72
2021/01/17 11:01:33;;;;;;;20.00;8.80;;;;;;;2.45;100.00;98223.72;5032586;28;20198;-72
2021/01/17 11:04:01;;;;;;;17.00;8.17;;;;;;;2.56;100.00;98228.00;5046894;28;20316;-72
2021/01/17 11:06:29;;;;;;;18.80;8.13;;;;;;;2.73;100.00;98216.66;5044698;28;20296;-72
2021/01/17 11:08:57;;;;;;;19.07;8.07;;;;;;;2.81;100.00;98222.88;5050594;28;20202;-72
2021/01/17 11:11:27;;;;;;;21.67;8.37;;;;;;;3.01;100.00;98218.31;5046760;28;20200;-72
2021/01/17 11:13:59;;;;;;;20.37;8.63;;;;;;;2.76;100.00;98219.88;5050381;28;20276;-74
2021/01/17 11:16:35;;;;;;;15.97;7.77;;;;;;;2.69;100.00;98226.69;5049761;28;20282;-74
2021/01/17 11:19:03;;;;;;;13.50;7.20;;;;;;;2.24;100.00;98225.75;5050041;28;20202;-74
2021/01/17 11:21:30;;;;;;;16.47;7.40;;;;;;;2.48;100.00;98234.00;5052789;28;20198;-72
2021/01/17 11:23:58;;;;;;;12.50;6.63;;;;;;;2.39;100.00;98234.84;5049839;28;20222;-72
2021/01/17 11:26:26;;;;;;;12.03;6.03;;;;;;;2.50;100.00;98218.84;5050692;28;20197;-73
2021/01/17 11:28:55;;;;;;;17.27;6.63;;;;;;;2.89;100.00;98224.78;5046677;28;20898;-73
2021/01/17 11:31:23;;;;;;;16.60;7.20;;;;;;;2.76;100.00;98230.41;5043314;28;20231;-72